»·PEaware :: N713AG KSLC-KDTA

N713AG :: KSLC-KDTA

FLIGHT INFORMATION

Flight Status: Arrived
Operator: Privately registered:
United States
More flights under this callsign
Pilot: Charles S. (11412)
Aircraft: SOCATA TBM-900
(TBM9)
More flights by this aircraft type
Origin: KSLC Salt Lake City Intl
United States
Destination: KDTA Delta Mun
United States
More flights between these airports :: More routes between these airports
Route: +SLC4 FFU V21 DTA
File this flight plan on PilotEdge
Remarks:
Altitude:
(Current/Filed)
16,000ft
Speed:
(Current/Filed)
220kts
Departed: 02-Nov-18 05:34 PM
Arrived: 02-Nov-18 06:27 PM
Distance/Time
Traveled:
88nm/0:52
Distance/Time
To Go:
Arrived

Flight Plot

Page will automatically refresh every two minutes.

Flight plan parsing failed; only flown route is shown


Map Options




Map Legend


Flown Route
Filed Route
Departure Airport
Arrival Airport
Navaid (VOR, NDB)
Fix

Horizontal Profiles

Position Reports

Time Latitude Longitude Heading Altitude Ground
Speed
02-Nov-18 17:25 40.778969 -111.958809 135 4222ft 0kts
02-Nov-18 17:26 40.778969 -111.958809 135 4222ft 0kts
02-Nov-18 17:27 40.778969 -111.958809 135 4222ft 0kts
02-Nov-18 17:28 40.778969 -111.958809 135 4222ft 0kts
02-Nov-18 17:29 40.778969 -111.958809 135 4222ft 0kts
02-Nov-18 17:30 40.778969 -111.958809 135 4222ft 0kts
02-Nov-18 17:31 40.778969 -111.958809 135 4222ft 0kts
02-Nov-18 17:32 40.778969 -111.958809 135 4222ft 0kts
02-Nov-18 17:33 40.778969 -111.958809 135 4222ft 0kts
02-Nov-18 17:34 40.778955 -111.958791 137 4222ft 2kts
02-Nov-18 17:35 40.774856 -111.960599 181 4222ft 21kts
02-Nov-18 17:36 40.772949 -111.960709 211 4222ft 0kts
02-Nov-18 17:37 40.784966 -111.962022 357 4336ft 127kts
02-Nov-18 17:38 40.821701 -111.961743 356 5650ft 169kts
02-Nov-18 17:39 40.856254 -111.960825 355 6973ft 176kts
02-Nov-18 17:40 40.897569 -111.958037 356 8695ft 163kts
02-Nov-18 17:41 40.928155 -111.956488 328 10068ft 141kts
02-Nov-18 17:42 40.921660 -111.982172 192 11649ft 151kts
02-Nov-18 17:43 40.895713 -111.981732 189 12833ft 148kts
02-Nov-18 17:44 40.865542 -111.980045 187 13613ft 189kts
02-Nov-18 17:45 40.834392 -111.977968 186 14256ft 212kts
02-Nov-18 17:46 40.803563 -111.975843 186 14805ft 225kts
02-Nov-18 17:47 40.758599 -111.972775 186 15534ft 235kts
02-Nov-18 17:48 40.727176 -111.970651 187 15985ft 240kts
02-Nov-18 17:49 40.694013 -111.968504 186 16013ft 259kts
02-Nov-18 17:50 40.660912 -111.966275 185 16009ft 270kts
02-Nov-18 17:51 40.625224 -111.963862 185 16005ft 277kts
02-Nov-18 17:52 40.590056 -111.961496 185 16007ft 280kts
02-Nov-18 17:53 40.554222 -111.959093 185 16010ft 282kts
02-Nov-18 17:54 40.520761 -111.956858 185 16013ft 283kts
02-Nov-18 17:55 40.489886 -111.954798 185 16017ft 284kts
02-Nov-18 17:56 40.460089 -111.952809 185 16012ft 285kts
02-Nov-18 17:57 40.429579 -111.950781 185 16024ft 285kts
02-Nov-18 17:58 40.399270 -111.948761 185 16183ft 279kts
02-Nov-18 17:59 40.366941 -111.946528 187 16800ft 261kts
02-Nov-18 18:00 40.332499 -111.944218 188 17492ft 248kts
02-Nov-18 18:01 40.295120 -111.941835 188 18043ft 252kts
02-Nov-18 18:02 40.261573 -111.948629 214 18069ft 246kts
02-Nov-18 18:03 40.229934 -111.967146 214 18047ft 257kts
02-Nov-18 18:04 40.202268 -111.983395 214 18043ft 262kts
02-Nov-18 18:05 40.169838 -112.002464 214 18040ft 266kts
02-Nov-18 18:06 40.136906 -112.021793 214 18039ft 268kts
02-Nov-18 18:07 40.104203 -112.040984 214 18038ft 269kts
02-Nov-18 18:08 40.071749 -112.060017 214 18038ft 269kts
02-Nov-18 18:09 40.040171 -112.078537 214 18021ft 273kts
02-Nov-18 18:10 40.008895 -112.096837 214 18020ft 275kts
02-Nov-18 18:11 39.980049 -112.113697 214 18020ft 275kts
02-Nov-18 18:12 39.950271 -112.131092 214 18020ft 276kts
02-Nov-18 18:13 39.913601 -112.152497 214 18022ft 276kts
02-Nov-18 18:14 39.876869 -112.173874 214 18019ft 276kts
02-Nov-18 18:15 39.854589 -112.186869 214 18021ft 276kts
02-Nov-18 18:16 39.813000 -112.211074 214 18025ft 276kts
02-Nov-18 18:17 39.770428 -112.235812 214 18028ft 275kts
02-Nov-18 18:18 39.726756 -112.261165 214 18031ft 275kts
02-Nov-18 18:19 39.682783 -112.286608 214 16863ft 254kts
02-Nov-18 18:20 39.625459 -112.319794 213 14969ft 239kts
02-Nov-18 18:21 39.583422 -112.344083 212 13541ft 234kts
02-Nov-18 18:22 39.541838 -112.368064 211 12114ft 231kts
02-Nov-18 18:23 39.504191 -112.389742 209 10816ft 226kts
02-Nov-18 18:24 39.464631 -112.412836 209 9423ft 219kts
02-Nov-18 18:25 39.416575 -112.438285 198 7991ft 205kts
02-Nov-18 18:26 39.369768 -112.453924 195 6615ft 195kts
02-Nov-18 18:27 39.326183 -112.469659 246 6023ft 166kts
02-Nov-18 18:28 39.348091 -112.502537 351 5306ft 137kts
02-Nov-18 18:29 39.378646 -112.502267 3 4754ft 94kts
02-Nov-18 18:30 39.390840 -112.502350 298 4757ft 10kts
02-Nov-18 18:31 39.386861 -112.507720 224 4760ft 31kts
02-Nov-18 18:32 39.386067 -112.512873 52 4755ft 4kts
02-Nov-18 18:33 39.386077 -112.512859 42 4755ft 0kts
02-Nov-18 18:34 39.386077 -112.512859 42 4755ft 0kts
02-Nov-18 18:35 39.386077 -112.512859 42 4755ft 0kts
02-Nov-18 18:36 39.386077 -112.512859 42 4755ft 0kts
02-Nov-18 18:37 39.386077 -112.512859 42 4755ft 0kts
02-Nov-18 18:38 39.386077 -112.512859 42 4755ft 0kts
02-Nov-18 18:38 39.386077 -112.512859 42 4755ft 0kts
02-Nov-18 18:40 39.386077 -112.512859 42 4755ft 0kts
02-Nov-18 18:40 39.386077 -112.512859 42 4755ft 0kts
02-Nov-18 18:42 39.386077 -112.512859 42 4755ft 0kts
02-Nov-18 18:43 39.386077 -112.512859 42 4755ft 0kts
02-Nov-18 18:43 39.386077 -112.512859 42 4755ft 0kts

Navigation Log

Ident Type
Flight plan parsing failed, navigation log unavailable